createdAt,value
2019-01-08T00:00:00.441Z,4.10
2019-01-08T00:02:29.531Z,4.20
2019-01-08T00:04:58.571Z,3.63
2019-01-08T00:07:27.867Z,4.27
2019-01-08T00:09:56.977Z,4.10
2019-01-08T00:12:25.958Z,4.30
2019-01-08T00:14:55.059Z,5.00
2019-01-08T00:17:24.404Z,4.47
2019-01-08T00:19:53.952Z,4.13
2019-01-08T00:22:23.213Z,3.93
2019-01-08T00:24:52.784Z,4.07
2019-01-08T00:27:21.808Z,4.23
2019-01-08T00:29:51.468Z,4.67
2019-01-08T00:32:20.396Z,4.77
2019-01-08T00:34:49.383Z,4.70
2019-01-08T00:37:18.908Z,5.20
2019-01-08T00:39:48.293Z,5.40
2019-01-08T00:42:17.649Z,6.07
2019-01-08T00:44:46.728Z,7.67
2019-01-08T00:47:15.984Z,7.40
2019-01-08T00:49:45.062Z,8.20
2019-01-08T00:52:14.389Z,8.43
2019-01-08T00:54:45.638Z,9.03
2019-01-08T00:57:15.115Z,8.17
2019-01-08T00:59:44.640Z,9.00
2019-01-08T01:02:13.981Z,9.63
2019-01-08T01:04:42.961Z,10.13
2019-01-08T01:07:12.250Z,8.30
2019-01-08T01:09:42.625Z,7.07
2019-01-08T01:12:11.677Z,6.47
2019-01-08T01:14:40.764Z,5.27
2019-01-08T01:17:10.224Z,4.10
2019-01-08T01:19:39.256Z,3.20
2019-01-08T01:22:08.442Z,3.57
2019-01-08T01:24:37.973Z,2.97
2019-01-08T01:27:07.095Z,2.60
2019-01-08T01:29:36.380Z,2.90
2019-01-08T01:32:05.988Z,2.97
2019-01-08T01:34:35.511Z,2.60
2019-01-08T01:37:04.842Z,2.87
2019-01-08T01:39:34.094Z,2.83
2019-01-08T01:42:03.557Z,3.23
2019-01-08T01:44:32.713Z,2.87
2019-01-08T01:47:02.434Z,2.93
2019-01-08T01:49:31.479Z,2.73
2019-01-08T01:52:00.624Z,2.20
2019-01-08T01:54:30.145Z,2.97
2019-01-08T01:56:59.252Z,2.87
2019-01-08T01:59:28.620Z,2.50
2019-01-08T02:01:57.908Z,2.80
2019-01-08T02:04:27.415Z,2.80
2019-01-08T02:06:57.082Z,2.93
2019-01-08T02:09:26.161Z,2.37
2019-01-08T02:11:55.305Z,2.80
2019-01-08T02:14:24.375Z,2.90
2019-01-08T02:16:53.397Z,2.90
2019-01-08T02:19:23.113Z,2.37
2019-01-08T02:21:52.189Z,2.87
2019-01-08T02:24:21.261Z,2.40
2019-01-08T02:26:50.472Z,2.90
2019-01-08T02:29:19.417Z,2.90
2019-01-08T02:31:48.382Z,2.70
2019-01-08T02:34:17.461Z,2.87
2019-01-08T02:36:46.793Z,2.77
2019-01-08T02:39:15.825Z,3.20
2019-01-08T02:41:45.244Z,2.67
2019-01-08T02:44:14.781Z,3.20
2019-01-08T02:46:43.964Z,3.17
2019-01-08T02:49:13.490Z,2.67
2019-01-08T02:51:42.741Z,3.07
2019-01-08T02:54:11.661Z,2.93
2019-01-08T02:56:40.698Z,2.93
2019-01-08T02:59:10.190Z,3.23
2019-01-08T03:01:39.235Z,3.03
2019-01-08T03:04:08.433Z,2.97
2019-01-08T03:06:37.751Z,3.40
2019-01-08T03:09:07.286Z,3.93
2019-01-08T03:11:36.436Z,3.87
2019-01-08T03:14:05.758Z,3.90
2019-01-08T03:16:35.449Z,3.80
2019-01-08T03:19:04.762Z,4.03
2019-01-08T03:21:33.892Z,3.60
2019-01-08T03:24:02.972Z,3.27
2019-01-08T03:26:32.198Z,3.70
2019-01-08T03:29:01.278Z,3.87
2019-01-08T03:31:30.326Z,3.93
2019-01-08T03:33:59.351Z,3.63
2019-01-08T03:36:28.258Z,3.70
2019-01-08T03:38:57.483Z,3.20
2019-01-08T03:41:26.851Z,3.57
2019-01-08T03:43:56.213Z,3.57
2019-01-08T03:46:25.234Z,3.80
2019-01-08T03:48:54.288Z,3.33
2019-01-08T03:51:23.409Z,3.37
2019-01-08T03:53:52.812Z,3.07
2019-01-08T03:56:22.128Z,2.83
2019-01-08T03:58:51.456Z,3.13
2019-01-08T04:01:20.833Z,2.63
2019-01-08T04:03:50.104Z,3.03
2019-01-08T04:06:19.174Z,2.60
2019-01-08T04:08:48.532Z,3.00
2019-01-08T04:11:17.590Z,3.50
2019-01-08T04:13:46.931Z,3.80
2019-01-08T04:16:16.091Z,3.40
2019-01-08T04:18:45.143Z,2.73
2019-01-08T04:21:14.198Z,2.70
2019-01-08T04:23:43.188Z,2.90
2019-01-08T04:26:12.581Z,2.47
2019-01-08T04:28:41.833Z,3.17
2019-01-08T04:31:11.017Z,2.77
2019-01-08T04:33:40.626Z,2.50
2019-01-08T04:36:09.852Z,3.10
2019-01-08T04:38:39.106Z,3.43
2019-01-08T04:41:08.145Z,3.13
2019-01-08T04:43:37.544Z,2.67
2019-01-08T04:46:06.781Z,2.93
2019-01-08T04:48:36.043Z,3.63
2019-01-08T04:51:05.153Z,3.10
2019-01-08T04:53:34.132Z,3.17
2019-01-08T04:56:03.626Z,2.80
2019-01-08T04:58:32.981Z,3.00
2019-01-08T05:01:02.025Z,2.97
2019-01-08T05:03:31.208Z,2.97
2019-01-08T05:06:01.396Z,2.43
2019-01-08T05:08:30.641Z,2.50
2019-01-08T05:10:59.978Z,3.87
2019-01-08T05:13:29.084Z,2.80
2019-01-08T05:15:58.284Z,3.17
2019-01-08T05:18:27.719Z,2.97
2019-01-08T05:20:56.791Z,2.63
2019-01-08T05:23:25.737Z,3.50
2019-01-08T05:25:55.072Z,3.40
2019-01-08T05:28:24.262Z,3.40
2019-01-08T05:30:53.547Z,3.77
2019-01-08T05:33:22.853Z,2.77
2019-01-08T05:35:52.134Z,2.80
2019-01-08T05:38:21.309Z,2.87
2019-01-08T05:40:50.461Z,3.00
2019-01-08T05:43:19.435Z,3.03
2019-01-08T05:45:48.743Z,3.40
2019-01-08T05:48:17.944Z,3.23
2019-01-08T05:50:46.962Z,3.53
2019-01-08T05:53:16.014Z,2.77
2019-01-08T05:55:45.034Z,3.07
2019-01-08T05:58:14.283Z,3.27
2019-01-08T06:00:46.352Z,3.77
2019-01-08T06:03:15.696Z,3.07
2019-01-08T06:05:44.704Z,3.30
2019-01-08T06:08:13.778Z,4.17
2019-01-08T06:10:43.108Z,3.83
2019-01-08T06:13:12.151Z,3.30
2019-01-08T06:15:41.561Z,2.70
2019-01-08T06:18:12.063Z,2.90
2019-01-08T06:20:41.744Z,3.07
2019-01-08T06:23:11.113Z,2.93
2019-01-08T06:25:41.576Z,3.90
2019-01-08T06:28:11.001Z,3.47
2019-01-08T06:30:40.887Z,3.77
2019-01-08T06:33:11.034Z,3.33
2019-01-08T06:35:41.186Z,2.70
2019-01-08T06:38:10.890Z,3.03
2019-01-08T06:40:40.953Z,2.50
2019-01-08T06:43:11.263Z,4.70
2019-01-08T06:45:41.037Z,4.23
2019-01-08T06:48:12.699Z,3.77
2019-01-08T06:50:43.058Z,3.13
2019-01-08T06:53:13.881Z,3.13
2019-01-08T06:55:43.922Z,2.90
2019-01-08T06:58:13.470Z,3.57
2019-01-08T07:00:43.420Z,4.07
2019-01-08T07:03:13.465Z,2.83
2019-01-08T07:05:43.712Z,3.17
2019-01-08T07:08:13.882Z,3.20
2019-01-08T07:10:44.674Z,3.37
2019-01-08T07:13:13.693Z,3.13
2019-01-08T07:15:42.778Z,3.23
2019-01-08T07:18:11.868Z,2.80
2019-01-08T07:20:40.974Z,3.40
2019-01-08T07:23:10.002Z,3.53
2019-01-08T07:25:42.285Z,2.70
2019-01-08T07:28:09.759Z,2.90
2019-01-08T07:30:41.669Z,2.90
2019-01-08T07:33:10.087Z,3.47
2019-01-08T07:35:39.391Z,3.93
2019-01-08T07:38:08.733Z,2.67
2019-01-08T07:40:37.992Z,3.70
2019-01-08T07:43:07.103Z,2.80
2019-01-08T07:45:36.334Z,3.40
2019-01-08T07:48:05.430Z,2.90
2019-01-08T07:50:35.217Z,3.27
2019-01-08T07:53:04.957Z,3.20
2019-01-08T07:55:33.947Z,4.03
2019-01-08T07:58:03.444Z,2.60
2019-01-08T08:00:32.447Z,3.57
2019-01-08T08:03:02.038Z,2.70
2019-01-08T08:05:31.144Z,2.80
2019-01-08T08:08:00.317Z,3.03
2019-01-08T08:10:29.590Z,2.50
2019-01-08T08:12:58.670Z,3.03
2019-01-08T08:15:27.905Z,3.63
2019-01-08T08:17:57.188Z,2.30
2019-01-08T08:20:26.250Z,2.60
2019-01-08T08:22:55.649Z,2.73
2019-01-08T08:25:24.864Z,2.70
2019-01-08T08:27:53.873Z,2.90
2019-01-08T08:30:22.861Z,2.60
2019-01-08T08:32:52.207Z,3.30
2019-01-08T08:35:21.311Z,2.67
2019-01-08T08:37:50.265Z,2.60
2019-01-08T08:40:19.480Z,2.70
2019-01-08T08:42:48.462Z,3.30
2019-01-08T08:45:17.579Z,2.37
2019-01-08T08:47:46.490Z,2.73
2019-01-08T08:50:15.482Z,2.17
2019-01-08T08:52:44.630Z,3.87
2019-01-08T08:55:14.018Z,2.70
2019-01-08T08:57:43.111Z,3.10
2019-01-08T09:00:12.471Z,2.87
2019-01-08T09:02:41.539Z,3.13
2019-01-08T09:05:10.902Z,2.57
2019-01-08T09:07:40.127Z,2.97
2019-01-08T09:10:09.177Z,2.60
2019-01-08T09:12:38.238Z,2.97
2019-01-08T09:15:07.450Z,2.37
2019-01-08T09:17:36.826Z,3.07
2019-01-08T09:20:06.356Z,2.37
2019-01-08T09:22:35.577Z,2.20
2019-01-08T09:25:04.941Z,2.73
2019-01-08T09:27:34.407Z,2.20
2019-01-08T09:30:03.571Z,2.30
2019-01-08T09:32:33.014Z,2.10
2019-01-08T09:35:02.305Z,1.83
2019-01-08T09:37:31.350Z,2.33
2019-01-08T09:40:00.637Z,2.27
2019-01-08T09:42:29.979Z,2.07
2019-01-08T09:44:59.044Z,2.13
2019-01-08T09:47:27.949Z,2.37
2019-01-08T09:49:57.288Z,1.87
2019-01-08T09:52:26.257Z,2.33
2019-01-08T09:54:55.301Z,2.70
2019-01-08T09:57:24.303Z,3.03
2019-01-08T09:59:53.676Z,2.50
2019-01-08T10:02:23.058Z,2.47
2019-01-08T10:04:52.446Z,2.53
2019-01-08T10:07:21.472Z,3.87
2019-01-08T10:09:51.002Z,2.37
2019-01-08T10:12:20.093Z,2.90
2019-01-08T10:14:49.162Z,3.40
2019-01-08T10:17:18.588Z,2.90
2019-01-08T10:19:47.622Z,2.63
2019-01-08T10:22:16.686Z,2.50
2019-01-08T10:24:46.011Z,2.87
2019-01-08T10:27:15.556Z,3.77
2019-01-08T10:29:44.801Z,2.83
2019-01-08T10:32:13.772Z,3.30
2019-01-08T10:34:42.940Z,4.03
2019-01-08T10:37:12.073Z,3.40
2019-01-08T10:39:41.200Z,3.10
2019-01-08T10:42:10.093Z,3.30
2019-01-08T10:44:39.034Z,2.60
2019-01-08T10:47:08.409Z,3.73
2019-01-08T10:49:37.401Z,2.73
2019-01-08T10:52:06.458Z,2.70
2019-01-08T10:54:35.941Z,2.50
2019-01-08T10:57:05.213Z,3.47
2019-01-08T10:59:34.872Z,1.93
2019-01-08T11:02:03.958Z,2.93
2019-01-08T11:04:33.254Z,2.50
2019-01-08T11:07:02.331Z,2.83
2019-01-08T11:09:31.523Z,3.00
2019-01-08T11:12:01.141Z,2.93
2019-01-08T11:14:30.289Z,2.10
2019-01-08T11:16:59.311Z,3.37
2019-01-08T11:19:28.729Z,2.43
2019-01-08T11:21:57.919Z,2.57
2019-01-08T11:24:27.555Z,2.23
2019-01-08T11:26:56.644Z,3.13
2019-01-08T11:29:25.835Z,2.40
2019-01-08T11:31:54.878Z,2.33
2019-01-08T11:34:24.222Z,2.90
2019-01-08T11:36:53.209Z,2.67
2019-01-08T11:39:22.446Z,3.03
2019-01-08T11:41:51.486Z,3.23
2019-01-08T11:44:20.533Z,3.10
2019-01-08T11:46:49.642Z,3.57
2019-01-08T11:49:18.610Z,3.50
2019-01-08T11:51:47.758Z,2.90
2019-01-08T11:54:16.879Z,3.43
2019-01-08T11:56:46.107Z,2.87
2019-01-08T11:59:15.195Z,2.80
2019-01-08T12:01:44.628Z,3.27
2019-01-08T12:04:13.654Z,4.17
2019-01-08T12:06:42.720Z,3.10
2019-01-08T12:09:11.768Z,3.63
2019-01-08T12:11:40.975Z,2.70
2019-01-08T12:14:11.161Z,3.20
2019-01-08T12:16:40.413Z,3.37
2019-01-08T12:19:09.421Z,3.37
2019-01-08T12:21:38.671Z,3.20
2019-01-08T12:24:07.923Z,2.80
2019-01-08T12:26:37.183Z,3.07
2019-01-08T12:29:06.595Z,3.33
2019-01-08T12:31:36.563Z,2.60
2019-01-08T12:34:05.581Z,2.83
2019-01-08T12:36:34.672Z,2.67
2019-01-08T12:39:04.182Z,2.83
2019-01-08T12:41:33.529Z,2.60
2019-01-08T12:44:02.573Z,2.80
2019-01-08T12:46:32.378Z,2.63
2019-01-08T12:49:01.374Z,3.10
2019-01-08T12:51:30.409Z,2.77
2019-01-08T12:53:59.893Z,2.53
2019-01-08T12:56:29.231Z,2.83
2019-01-08T12:58:58.871Z,3.10
2019-01-08T13:01:28.937Z,2.70
2019-01-08T13:03:58.601Z,3.40
2019-01-08T13:06:27.745Z,2.90
2019-01-08T13:08:56.697Z,3.43
2019-01-08T13:11:26.252Z,3.40
2019-01-08T13:13:55.366Z,3.53
2019-01-08T13:16:24.665Z,3.77
2019-01-08T13:18:53.668Z,3.23
2019-01-08T13:21:22.580Z,3.20
2019-01-08T13:23:51.818Z,2.93
2019-01-08T13:26:21.016Z,3.57
2019-01-08T13:28:50.039Z,3.00
2019-01-08T13:31:19.268Z,3.30
2019-01-08T13:33:48.873Z,3.30
2019-01-08T13:36:17.998Z,3.03
2019-01-08T13:38:47.840Z,3.97
2019-01-08T13:41:16.971Z,3.00
2019-01-08T13:43:46.270Z,3.40
2019-01-08T13:46:15.782Z,3.57
2019-01-08T13:48:45.094Z,3.67
2019-01-08T13:51:14.410Z,3.97
2019-01-08T13:53:43.289Z,3.40
2019-01-08T13:56:12.869Z,4.03
2019-01-08T13:58:41.996Z,5.57
2019-01-08T14:01:11.849Z,4.20
2019-01-08T14:03:41.256Z,3.57
2019-01-08T14:06:10.393Z,2.70
2019-01-08T14:08:39.833Z,2.93
2019-01-08T14:11:08.974Z,2.33
2019-01-08T14:13:38.396Z,1.93
2019-01-08T14:16:07.992Z,2.53
2019-01-08T14:18:37.083Z,2.90
2019-01-08T14:21:06.681Z,1.67
2019-01-08T14:23:36.310Z,2.00
2019-01-08T14:26:07.757Z,1.83
2019-01-08T14:28:36.988Z,2.13
2019-01-08T14:31:07.721Z,2.23
2019-01-08T14:33:37.237Z,2.07
2019-01-08T14:36:06.947Z,2.10
2019-01-08T14:38:39.668Z,2.70
2019-01-08T14:41:09.144Z,2.50
2019-01-08T14:43:39.411Z,2.80
2019-01-08T14:46:10.869Z,2.83
2019-01-08T14:48:41.205Z,3.17
2019-01-08T14:51:14.015Z,3.20
2019-01-08T14:53:43.736Z,3.47
2019-01-08T14:56:13.415Z,2.93
2019-01-08T14:58:43.276Z,3.60
2019-01-08T15:01:13.869Z,3.07
2019-01-08T15:03:43.380Z,3.03
2019-01-08T15:06:13.142Z,2.47
2019-01-08T15:08:42.721Z,3.30
2019-01-08T15:11:11.857Z,3.17
2019-01-08T15:13:41.485Z,3.20
2019-01-08T15:16:10.794Z,3.27
2019-01-08T15:18:40.031Z,4.30
2019-01-08T15:21:09.204Z,4.87
2019-01-08T15:23:38.616Z,3.33
2019-01-08T15:26:07.762Z,3.53
2019-01-08T15:28:36.836Z,3.43
2019-01-08T15:31:06.506Z,3.17
2019-01-08T15:33:35.664Z,3.27
2019-01-08T15:36:04.777Z,3.20
2019-01-08T15:38:33.871Z,3.50
2019-01-08T15:41:03.067Z,3.03
2019-01-08T15:43:32.811Z,3.80
2019-01-08T15:46:02.210Z,2.87
2019-01-08T15:48:31.632Z,3.03
2019-01-08T15:51:01.052Z,3.00
2019-01-08T15:53:30.023Z,3.43
2019-01-08T15:55:59.302Z,2.67
2019-01-08T15:58:28.947Z,3.03
2019-01-08T16:00:57.911Z,4.23
2019-01-08T16:03:26.979Z,4.30
2019-01-08T16:05:56.165Z,2.97
2019-01-08T16:08:25.227Z,3.17
2019-01-08T16:10:54.445Z,2.83
2019-01-08T16:13:23.899Z,3.20
2019-01-08T16:15:53.089Z,2.77
2019-01-08T16:18:22.058Z,3.50
2019-01-08T16:20:51.451Z,3.30
2019-01-08T16:23:20.656Z,3.57
2019-01-08T16:25:50.292Z,3.40
2019-01-08T16:28:19.263Z,2.87
2019-01-08T16:30:48.317Z,3.10
2019-01-08T16:33:17.581Z,2.80
2019-01-08T16:35:46.562Z,2.93
2019-01-08T16:38:16.024Z,3.10
2019-01-08T16:40:45.226Z,2.13
2019-01-08T16:43:14.450Z,2.53
2019-01-08T16:45:43.398Z,2.40
2019-01-08T16:48:12.780Z,2.87
2019-01-08T16:50:41.850Z,2.50
2019-01-08T16:53:10.900Z,2.90
2019-01-08T16:55:40.293Z,2.57
2019-01-08T16:58:09.315Z,2.50
2019-01-08T17:00:38.368Z,3.33
2019-01-08T17:03:07.688Z,2.33
2019-01-08T17:05:37.029Z,4.57
2019-01-08T17:08:06.438Z,2.93
2019-01-08T17:10:38.010Z,3.47
2019-01-08T17:13:07.131Z,3.47
2019-01-08T17:15:36.433Z,3.20
2019-01-08T17:18:05.511Z,3.23
2019-01-08T17:20:34.558Z,3.03
2019-01-08T17:23:03.833Z,2.70
2019-01-08T17:25:32.845Z,3.47
2019-01-08T17:28:02.115Z,2.80
2019-01-08T17:30:31.354Z,3.03
2019-01-08T17:33:00.336Z,3.03
2019-01-08T17:35:29.639Z,3.40
2019-01-08T17:37:58.627Z,4.97
2019-01-08T17:40:27.666Z,3.93
2019-01-08T17:42:57.096Z,3.50
2019-01-08T17:45:26.351Z,4.20
2019-01-08T17:47:55.349Z,2.97
2019-01-08T17:50:24.410Z,3.23
2019-01-08T17:52:53.313Z,3.67
2019-01-08T17:55:22.573Z,3.27
2019-01-08T17:58:10.669Z,3.70
2019-01-08T18:00:39.723Z,2.97
2019-01-08T18:03:09.160Z,2.97
2019-01-08T18:05:38.409Z,2.60
2019-01-08T18:08:07.375Z,2.90
2019-01-08T18:10:36.617Z,3.00
2019-01-08T18:13:05.224Z,2.93
2019-01-08T18:15:34.700Z,2.50
2019-01-08T18:18:03.668Z,2.80
2019-01-08T18:20:32.735Z,2.53
2019-01-08T18:23:01.809Z,2.30
2019-01-08T18:25:31.344Z,2.43
2019-01-08T18:28:00.710Z,2.73
2019-01-08T18:30:30.290Z,2.53
2019-01-08T18:32:59.485Z,3.13
2019-01-08T18:35:28.732Z,2.90
2019-01-08T18:37:58.262Z,2.97
2019-01-08T18:40:27.337Z,2.90
2019-01-08T18:42:58.262Z,4.57
2019-01-08T18:45:27.594Z,2.90
2019-01-08T18:47:56.667Z,3.07
2019-01-08T18:50:25.849Z,3.37
2019-01-08T18:52:55.223Z,3.73
2019-01-08T18:55:24.331Z,2.50
2019-01-08T18:57:53.742Z,2.40
2019-01-08T19:00:22.963Z,2.17
2019-01-08T19:02:52.618Z,2.97
2019-01-08T19:05:21.877Z,4.00
2019-01-08T19:07:51.258Z,2.87
2019-01-08T19:10:20.388Z,2.87
2019-01-08T19:12:49.453Z,2.90
2019-01-08T19:15:18.459Z,2.90
2019-01-08T19:17:47.834Z,3.03
2019-01-08T19:20:17.154Z,2.77
2019-01-08T19:22:46.510Z,3.07
2019-01-08T19:25:15.791Z,3.73
2019-01-08T19:27:45.166Z,3.70
2019-01-08T19:30:14.106Z,3.30
2019-01-08T19:32:43.398Z,2.80
2019-01-08T19:35:12.731Z,2.73
2019-01-08T19:37:41.718Z,2.77
2019-01-08T19:40:10.996Z,3.97
2019-01-08T19:42:40.195Z,2.23
2019-01-08T19:45:09.361Z,4.07
2019-01-08T19:47:38.540Z,2.90
2019-01-08T19:50:08.333Z,3.20
2019-01-08T19:52:37.532Z,4.93
2019-01-08T19:55:07.035Z,3.00
2019-01-08T19:57:36.087Z,2.80
2019-01-08T20:00:06.112Z,2.80
2019-01-08T20:02:35.426Z,2.90
2019-01-08T20:05:04.723Z,2.20
2019-01-08T20:07:34.352Z,2.90
2019-01-08T20:10:03.579Z,3.10
2019-01-08T20:12:32.578Z,3.03
2019-01-08T20:15:01.857Z,3.97
2019-01-08T20:17:31.083Z,3.47
2019-01-08T20:20:00.286Z,2.97
2019-01-08T20:22:29.521Z,2.93
2019-01-08T20:24:58.608Z,2.80
2019-01-08T20:27:32.608Z,2.83
2019-01-08T20:30:01.601Z,2.60
2019-01-08T20:32:30.915Z,3.27
2019-01-08T20:35:00.267Z,3.70
2019-01-08T20:37:29.991Z,3.97
2019-01-08T20:39:59.044Z,3.23
2019-01-08T20:42:28.264Z,2.87
2019-01-08T20:44:57.512Z,2.63
2019-01-08T20:47:26.746Z,2.80
2019-01-08T20:49:56.109Z,2.57
2019-01-08T20:52:25.187Z,2.63
2019-01-08T20:54:54.255Z,2.60
2019-01-08T20:57:23.648Z,3.80
2019-01-08T20:59:53.105Z,2.77
2019-01-08T21:02:22.432Z,3.87
2019-01-08T21:04:51.775Z,3.17
2019-01-08T21:07:20.973Z,2.50
2019-01-08T21:09:49.915Z,2.97
2019-01-08T21:12:19.039Z,3.10
2019-01-08T21:14:51.522Z,2.97
2019-01-08T21:17:21.119Z,3.67
2019-01-08T21:19:50.266Z,3.23
2019-01-08T21:22:19.391Z,2.70
2019-01-08T21:24:48.391Z,3.00
2019-01-08T21:27:17.561Z,2.47
2019-01-08T21:29:46.610Z,2.53
2019-01-08T21:32:16.177Z,2.93
2019-01-08T21:34:45.147Z,2.73
2019-01-08T21:37:14.297Z,2.93
2019-01-08T21:39:43.473Z,3.23
2019-01-08T21:42:13.010Z,3.20
2019-01-08T21:44:42.572Z,3.00
2019-01-08T21:47:11.710Z,3.40
2019-01-08T21:49:42.205Z,2.87
2019-01-08T21:52:11.356Z,3.63
2019-01-08T21:54:40.455Z,2.97
2019-01-08T21:57:09.615Z,3.10
2019-01-08T21:59:38.707Z,3.30
2019-01-08T22:02:09.671Z,2.77
2019-01-08T22:04:39.239Z,2.70
2019-01-08T22:07:08.648Z,2.47
2019-01-08T22:09:38.407Z,1.97
2019-01-08T22:12:08.577Z,2.67
2019-01-08T22:14:38.274Z,3.17
2019-01-08T22:17:23.262Z,2.50
2019-01-08T22:19:54.262Z,1.90
2019-01-08T22:22:24.147Z,2.07
2019-01-08T22:24:56.374Z,2.80
2019-01-08T22:27:59.570Z,3.07
2019-01-08T22:30:13.523Z,2.37
2019-01-08T22:32:57.955Z,2.80
2019-01-08T22:35:29.272Z,2.57
2019-01-08T22:38:02.531Z,2.43
2019-01-08T22:40:33.605Z,2.70
2019-01-08T22:43:04.778Z,2.43
2019-01-08T22:45:35.256Z,3.00
2019-01-08T22:48:04.711Z,2.97
2019-01-08T22:50:39.725Z,2.93
2019-01-08T22:53:09.405Z,3.20
2019-01-08T22:55:42.364Z,2.83
2019-01-08T22:58:11.821Z,2.37
2019-01-08T23:01:12.861Z,2.70
2019-01-08T23:03:39.829Z,2.63
2019-01-08T23:06:09.322Z,2.83
2019-01-08T23:08:38.552Z,3.07
2019-01-08T23:11:07.644Z,3.47
2019-01-08T23:13:36.911Z,3.20
2019-01-08T23:16:05.853Z,2.73
2019-01-08T23:18:34.945Z,2.77
2019-01-08T23:21:03.945Z,2.70
2019-01-08T23:23:33.236Z,2.40
2019-01-08T23:26:02.484Z,2.80
2019-01-08T23:28:31.758Z,2.17
2019-01-08T23:31:00.768Z,2.20
2019-01-08T23:33:29.759Z,2.47
2019-01-08T23:35:59.036Z,2.30
2019-01-08T23:38:28.075Z,2.70
2019-01-08T23:40:57.316Z,1.70
2019-01-08T23:43:26.352Z,2.27
2019-01-08T23:45:55.206Z,2.27
2019-01-08T23:48:24.264Z,2.03
2019-01-08T23:50:53.560Z,2.63
2019-01-08T23:53:35.440Z,2.40
2019-01-08T23:56:08.271Z,2.40
2019-01-08T23:58:37.302Z,2.70
